East Islip, New York
Current Conditions -  °F | °C
As of 12:56 AM on Friday 31 Oct 2014 (Local Time) from KISP Reporting Station
Clear Clear  
Wind Chill: 41°   Ceiling: Unl
Heat Index: 45°   Visibility: 10mi
Dew Point: 39°   Wind: 7mph
Humidity: 80%   Direction: 360°N
Pressure: 29.99"   Gusts: NA
Location:  40.73°N, 73.19°W
Report Text: KISP 310456Z AUTO 36006KT 10SM CLR 07/04 A2999 RMK AO2 SLP156 T00720039 401560056
Loading
Personal Weather Stations






























Interactive Weather Map New forecast layout! Learn more

10-Day Weather Forecast

Advertisements
Track Severe Weather on mobile